Time;durP1;ratioP1;P1;durP2;ratioP2;P2;SDS_P1;SDS_P2;PMS_P1;PMS_P2;Temp;Humidity;BMP_temperature;BMP_pressure;BME280_temperature;BME280_humidity;BME280_pressure;Samples;Min_cycle;Max_cycle;Signal;HPM_P1;HPM_P2
2022/12/21 00:01:56;;;;;;;8.88;7.03;;;;;;;1.09;78.69;95853.50;5074883;28;20281;-74
2022/12/21 00:04:23;;;;;;;9.00;7.82;;;;;;;1.12;78.76;95859.41;5075148;28;20199;-74
2022/12/21 00:06:49;;;;;;;11.60;7.43;;;;;;;1.14;78.86;95855.03;5074906;28;20204;-74
2022/12/21 00:09:16;;;;;;;10.30;7.47;;;;;;;1.15;79.02;95858.44;5039657;28;20678;-74
2022/12/21 00:11:43;;;;;;;12.88;7.93;;;;;;;1.18;78.99;95851.47;5075127;28;20275;-75
2022/12/21 00:14:11;;;;;;;12.02;7.65;;;;;;;1.22;79.16;95859.97;5074650;28;20296;-74
2022/12/21 00:16:39;;;;;;;11.70;8.00;;;;;;;1.23;79.01;95857.31;5074801;28;20233;-75
2022/12/21 00:19:06;;;;;;;14.15;7.55;;;;;;;1.18;79.75;95866.97;5074854;28;20216;-74
2022/12/21 00:21:36;;;;;;;11.48;7.95;;;;;;;1.10;79.81;95853.44;5074614;28;20208;-74
2022/12/21 00:24:03;;;;;;;12.93;8.57;;;;;;;1.11;79.79;95862.88;5074341;28;20202;-74
2022/12/21 00:26:32;;;;;;;11.30;8.02;;;;;;;1.03;79.47;95861.44;5074639;28;20675;-75
2022/12/21 00:29:00;;;;;;;10.05;6.85;;;;;;;0.92;79.43;95854.03;5073539;28;20200;-74
2022/12/21 00:31:30;;;;;;;13.73;8.07;;;;;;;0.86;79.34;95857.66;5074373;28;20203;-74
2022/12/21 00:33:58;;;;;;;20.65;9.48;;;;;;;0.83;79.22;95859.47;5074331;28;20244;-74
2022/12/21 00:36:26;;;;;;;11.93;7.80;;;;;;;0.78;79.11;95857.03;5073934;28;20556;-74
2022/12/21 00:38:53;;;;;;;12.60;8.02;;;;;;;0.77;79.70;95854.50;5074440;28;20441;-75
2022/12/21 00:41:22;;;;;;;14.18;7.70;;;;;;;0.78;79.80;95858.78;5074152;28;20296;-74
2022/12/21 00:43:51;;;;;;;11.18;7.75;;;;;;;0.78;79.98;95858.78;5074128;28;20544;-74
2022/12/21 00:46:21;;;;;;;9.27;7.07;;;;;;;0.77;80.03;95855.34;5074036;28;20201;-74
2022/12/21 00:48:50;;;;;;;12.68;8.40;;;;;;;0.79;79.96;95845.81;5073962;28;20999;-74
2022/12/21 00:51:20;;;;;;;9.15;7.78;;;;;;;0.83;80.63;95850.00;5074155;28;20209;-73
2022/12/21 00:53:47;;;;;;;10.02;7.97;;;;;;;0.86;81.09;95841.31;5073793;28;20210;-74
2022/12/21 00:56:14;;;;;;;11.20;8.30;;;;;;;0.89;80.66;95838.66;5073687;28;20237;-74
2022/12/21 00:58:41;;;;;;;10.27;7.88;;;;;;;0.88;81.12;95824.88;5073722;28;20560;-75
2022/12/21 01:01:11;;;;;;;11.73;8.45;;;;;;;0.89;81.28;95823.16;5073289;28;20291;-75
2022/12/21 01:03:38;;;;;;;12.18;8.50;;;;;;;0.96;81.14;95814.28;5038292;28;20197;-75
2022/12/21 01:06:07;;;;;;;10.32;7.90;;;;;;;1.02;80.69;95815.81;5073629;28;20210;-75
2022/12/21 01:08:33;;;;;;;15.52;9.80;;;;;;;1.03;81.39;95813.19;5074048;28;20712;-75
2022/12/21 01:11:02;;;;;;;15.93;9.90;;;;;;;1.02;80.93;95815.81;5073365;28;20700;-75
2022/12/21 01:13:33;;;;;;;17.33;9.77;;;;;;;0.99;81.53;95816.78;5073217;28;20649;-75
2022/12/21 01:16:00;;;;;;;10.85;8.40;;;;;;;1.04;80.82;95814.03;5073083;28;20232;-75
2022/12/21 01:18:27;;;;;;;14.15;8.80;;;;;;;1.04;80.72;95812.28;5073559;28;20610;-74
2022/12/21 01:20:55;;;;;;;14.80;9.50;;;;;;;1.08;80.25;95823.38;5073451;28;20204;-74
2022/12/21 01:23:24;;;;;;;13.70;10.05;;;;;;;1.06;79.95;95813.09;5073127;28;20285;-74
2022/12/21 01:25:51;;;;;;;14.82;9.63;;;;;;;1.08;80.17;95813.03;5073360;28;20269;-74
2022/12/21 01:28:18;;;;;;;15.52;10.45;;;;;;;1.03;80.14;95815.78;5072962;28;20293;-75
2022/12/21 01:30:45;;;;;;;14.50;10.10;;;;;;;0.97;79.98;95823.72;5073028;28;20644;-74
2022/12/21 01:33:14;;;;;;;15.25;11.88;;;;;;;0.91;80.14;95823.94;5073026;28;20209;-74
2022/12/21 01:35:42;;;;;;;16.98;12.38;;;;;;;0.75;80.37;95814.97;5073180;28;20210;-75
2022/12/21 01:38:10;;;;;;;17.48;12.07;;;;;;;0.63;80.72;95817.97;5073311;28;20211;-73
2022/12/21 01:40:39;;;;;;;19.95;12.00;;;;;;;0.67;80.77;95814.38;5072811;28;20203;-74
2022/12/21 01:43:18;;;;;;;24.00;14.40;;;;;;;0.71;80.33;95818.56;5072764;28;20251;-74
2022/12/21 01:45:52;;;;;;;19.35;11.95;;;;;;;0.71;80.76;95815.97;5073376;28;20210;-74
2022/12/21 01:48:21;;;;;;;19.20;11.55;;;;;;;0.71;80.45;95813.38;5072850;28;20716;-74
2022/12/21 01:50:52;;;;;;;18.80;11.10;;;;;;;0.71;80.72;95810.81;5021040;28;20264;-74
2022/12/21 01:53:24;;;;;;;17.00;10.68;;;;;;;0.68;80.26;95806.59;5072535;28;20628;-75
2022/12/21 01:55:56;;;;;;;14.40;9.88;;;;;;;0.67;80.42;95798.88;5073014;28;20201;-74
2022/12/21 01:58:26;;;;;;;14.88;10.95;;;;;;;0.54;80.64;95796.66;5072618;28;20715;-75
2022/12/21 02:00:53;;;;;;;17.23;11.02;;;;;;;0.53;80.88;95794.97;5072633;28;20736;-74
2022/12/21 02:03:22;;;;;;;16.80;10.55;;;;;;;0.53;80.61;95794.13;5072560;28;20260;-74
2022/12/21 02:05:54;;;;;;;17.15;11.23;;;;;;;0.55;80.79;95789.75;5072564;28;20605;-73
2022/12/21 02:08:22;;;;;;;16.27;9.88;;;;;;;0.54;80.88;95783.75;5072984;28;20210;-74
2022/12/21 02:10:49;;;;;;;18.60;11.10;;;;;;;0.58;80.40;95780.22;5072990;28;20244;-75
2022/12/21 02:13:17;;;;;;;15.13;10.80;;;;;;;0.59;80.59;95778.47;5072914;28;20203;-74
2022/12/21 02:16:07;;;;;;;15.52;10.70;;;;;;;0.61;80.43;95774.94;5072603;28;20207;-75
2022/12/21 02:18:48;;;;;;;16.27;10.23;;;;;;;0.51;80.17;95781.28;5072568;28;20258;-75
2022/12/21 02:21:23;;;;;;;13.70;9.13;;;;;;;0.50;80.51;95782.16;5072827;28;20210;-75
2022/12/21 02:24:28;;;;;;;15.00;9.07;;;;;;;0.45;80.91;95776.31;5072740;28;20201;-74
2022/12/21 02:27:14;;;;;;;16.35;11.25;;;;;;;0.50;80.82;95771.84;5072495;28;20214;-74
2022/12/21 02:30:08;;;;;;;12.82;8.50;;;;;;;0.48;80.93;95778.78;5072791;28;20200;-75
2022/12/21 02:32:50;;;;;;;14.30;9.73;;;;;;;0.51;80.96;95773.53;5072614;28;20199;-75
2022/12/21 02:35:31;;;;;;;11.50;9.50;;;;;;;0.49;80.74;95774.47;5072390;28;20199;-73
2022/12/21 02:38:06;;;;;;;16.88;9.68;;;;;;;0.40;80.18;95765.28;5072478;28;20299;-74
2022/12/21 02:40:41;;;;;;;14.45;9.75;;;;;;;0.38;80.68;95774.81;5072633;28;20261;-74
2022/12/21 02:46:03;;;;;;;14.32;9.07;;;;;;;0.38;80.54;95772.25;5072224;28;20296;-75
2022/12/21 02:48:39;;;;;;;15.15;8.88;;;;;;;0.43;80.65;95764.34;5072119;28;20584;-75
2022/12/21 02:51:12;;;;;;;14.30;9.57;;;;;;;0.44;80.12;95763.44;5072726;28;20263;-75
2022/12/21 02:53:40;;;;;;;11.48;8.20;;;;;;;0.40;79.95;95765.28;5075398;28;20207;-75
2022/12/21 02:56:15;;;;;;;11.13;8.30;;;;;;;0.43;80.65;95769.50;5076119;28;20210;-75
2022/12/21 02:58:41;;;;;;;13.88;8.55;;;;;;;0.38;80.42;95772.25;5076237;28;20198;-75
2022/12/21 03:01:18;;;;;;;14.48;9.75;;;;;;;0.34;80.48;95760.31;5076145;28;20227;-75
2022/12/21 03:04:01;;;;;;;17.38;9.00;;;;;;;0.32;81.20;95764.69;5076188;28;20214;-74
2022/12/21 03:06:49;;;;;;;11.55;9.40;;;;;;;0.31;81.34;95760.41;5076209;28;20267;-75
2022/12/21 03:09:31;;;;;;;14.82;9.57;;;;;;;0.24;81.42;95764.91;5075573;28;20211;-74
2022/12/21 03:12:03;;;;;;;14.35;9.73;;;;;;;0.21;81.25;95764.16;5075791;28;20231;-75
2022/12/21 03:14:43;;;;;;;18.70;11.40;;;;;;;0.13;81.09;95760.97;5075653;28;20210;-75
2022/12/21 03:17:20;;;;;;;17.85;12.63;;;;;;;0.08;81.69;95755.09;5075708;28;20283;-75
2022/12/21 03:19:56;;;;;;;23.00;14.68;;;;;;;0.06;82.00;95749.16;5075784;28;20199;-75
2022/12/21 03:22:32;;;;;;;21.55;13.60;;;;;;;0.03;81.62;95750.09;5075821;28;20206;-75
2022/12/21 03:25:07;;;;;;;29.90;19.00;;;;;;;0.05;82.31;95752.63;4993340;28;20207;-75
2022/12/21 03:27:38;;;;;;;28.58;18.20;;;;;;;0.02;81.74;95752.72;5023811;28;20258;-75
2022/12/21 03:30:08;;;;;;;29.15;18.42;;;;;;;0.01;81.53;95740.72;5075670;28;20210;-74
2022/12/21 03:32:40;;;;;;;30.17;17.58;;;;;;;0.05;81.67;95734.56;5075468;28;20211;-75
2022/12/21 03:35:18;;;;;;;25.23;15.90;;;;;;;0.10;81.57;95724.94;5075452;28;20199;-75
2022/12/21 03:37:47;;;;;;;25.85;15.25;;;;;;;0.15;81.72;95728.22;5075178;28;20280;-74
2022/12/21 03:40:19;;;;;;;24.10;16.60;;;;;;;0.17;81.76;95718.69;5075474;28;20206;-75
2022/12/21 03:42:52;;;;;;;26.10;15.85;;;;;;;0.23;82.07;95715.91;5075134;28;20206;-75
2022/12/21 03:45:24;;;;;;;28.30;17.30;;;;;;;0.24;81.63;95709.88;5075172;28;20206;-74
2022/12/21 03:47:57;;;;;;;30.02;17.13;;;;;;;0.27;82.04;95707.19;5075554;28;20229;-75
2022/12/21 03:50:31;;;;;;;28.98;17.52;;;;;;;0.29;81.63;95705.41;5075362;28;20210;-75
2022/12/21 03:53:07;;;;;;;25.67;16.80;;;;;;;0.20;81.55;95703.13;5074998;28;20210;-75
2022/12/21 03:55:38;;;;;;;30.10;17.17;;;;;;;0.08;81.70;95694.03;5075199;28;20721;-76
2022/12/21 03:58:07;;;;;;;25.77;16.67;;;;;;;-0.04;82.80;95692.66;5074993;28;20271;-74
2022/12/21 04:00:41;;;;;;;23.48;15.57;;;;;;;-0.06;82.20;95693.59;5075128;28;20259;-74
2022/12/21 04:03:16;;;;;;;29.88;15.00;;;;;;;-0.10;82.27;95692.84;5074618;28;20259;-74
2022/12/21 04:05:50;;;;;;;28.42;17.85;;;;;;;-0.12;82.45;95681.75;5074099;28;20653;-74
2022/12/21 04:08:17;;;;;;;26.45;17.73;;;;;;;-0.08;82.70;95685.06;5074879;28;20266;-75
2022/12/21 04:10:46;;;;;;;25.67;18.05;;;;;;;-0.08;82.18;95696.22;5055861;28;20592;-74
2022/12/21 04:13:12;;;;;;;29.23;19.85;;;;;;;-0.03;81.85;95696.91;5075215;28;20205;-74
2022/12/21 04:21:05;;;;;;;35.90;23.80;;;;;;;-0.14;81.87;95685.25;5073604;28;20278;-74
2022/12/21 04:28:59;;;;;;;32.67;19.23;;;;;;;-0.13;82.54;95687.78;5074194;28;20205;-74
2022/12/21 04:31:26;;;;;;;30.10;19.55;;;;;;;-0.11;82.44;95682.56;5074620;28;20205;-76
2022/12/21 04:33:53;;;;;;;30.42;18.23;;;;;;;-0.09;82.04;95679.06;5074204;28;20642;-74
2022/12/21 04:39:05;;;;;;;33.38;20.38;;;;;;;-0.04;81.59;95678.91;5030420;28;20208;-75
2022/12/21 04:41:33;;;;;;;34.97;21.55;;;;;;;-0.03;81.89;95678.88;5074093;28;20210;-74
2022/12/21 04:44:00;;;;;;;39.53;22.83;;;;;;;-0.03;82.25;95678.88;5074037;28;20248;-74
2022/12/21 04:46:27;;;;;;;38.80;25.98;;;;;;;0.02;81.51;95678.75;5073946;28;20225;-74
2022/12/21 04:48:54;;;;;;;47.50;27.05;;;;;;;-0.01;81.48;95669.34;5073951;28;20206;-74
2022/12/21 04:51:23;;;;;;;39.88;29.55;;;;;;;-0.02;81.26;95670.22;5074055;28;20203;-74
2022/12/21 04:53:51;;;;;;;50.25;27.45;;;;;;;0.01;81.56;95668.47;5073960;28;20255;-75
2022/12/21 04:56:18;;;;;;;35.13;26.13;;;;;;;0.01;81.36;95664.16;5073214;28;20217;-75
2022/12/21 04:58:46;;;;;;;39.20;25.00;;;;;;;-0.02;81.86;95665.06;5072957;28;20222;-74
2022/12/21 05:01:14;;;;;;;41.83;25.58;;;;;;;-0.06;81.68;95663.47;5073868;28;20235;-73
2022/12/21 05:03:41;;;;;;;62.08;33.83;;;;;;;-0.11;82.35;95665.38;5073641;28;20206;-74
2022/12/21 05:06:09;;;;;;;44.00;29.00;;;;;;;-0.12;82.28;95661.09;5073630;28;20305;-74
2022/12/21 05:08:37;;;;;;;46.22;27.80;;;;;;;-0.17;81.49;95660.41;5022192;28;20240;-74
2022/12/21 05:11:09;;;;;;;35.53;25.33;;;;;;;-0.23;81.83;95665.75;5073760;28;20615;-74
2022/12/21 05:13:35;;;;;;;43.00;27.40;;;;;;;-0.30;82.53;95664.22;5073505;28;20257;-74
2022/12/21 05:16:03;;;;;;;47.50;27.63;;;;;;;-0.30;82.33;95671.97;5037385;28;20198;-74
2022/12/21 05:18:30;;;;;;;61.55;37.42;;;;;;;-0.29;85.45;95671.06;5073409;28;20291;-74
2022/12/21 05:20:56;;;;;;;64.88;37.50;;;;;;;-0.26;84.83;95671.00;5021321;28;20191;-75
2022/12/21 05:23:23;;;;;;;54.88;34.05;;;;;;;-0.25;84.00;95664.97;5084849;28;20201;-75
2022/12/21 05:25:51;;;;;;;53.45;26.27;;;;;;;-0.31;82.86;95672.84;5091652;28;20205;-76
2022/12/21 05:28:18;;;;;;;42.35;25.02;;;;;;;-0.30;83.32;95677.13;5088693;28;20210;-76
2022/12/21 05:30:45;;;;;;;35.33;21.70;;;;;;;-0.35;82.81;95666.09;5091714;28;20193;-76
2022/12/21 05:33:11;;;;;;;27.23;19.98;;;;;;;-0.34;81.69;95663.47;5094532;28;20286;-81
2022/12/21 05:35:39;;;;;;;38.15;20.70;;;;;;;-0.36;82.15;95670.41;5092865;28;20828;-76
2022/12/21 05:38:06;;;;;;;29.98;18.23;;;;;;;-0.38;81.66;95668.78;5037744;28;20590;-76
2022/12/21 05:40:33;;;;;;;33.97;18.58;;;;;;;-0.35;82.18;95679.00;5028420;28;20738;-74
2022/12/21 05:43:01;;;;;;;45.97;21.40;;;;;;;-0.34;81.62;95672.94;5077137;28;20210;-74
2022/12/21 05:45:28;;;;;;;47.70;22.15;;;;;;;-0.33;81.66;95672.91;5073502;28;20208;-74
2022/12/21 05:47:55;;;;;;;32.88;19.77;;;;;;;-0.32;81.58;95666.00;5084914;28;20255;-73
2022/12/21 05:50:22;;;;;;;39.22;20.63;;;;;;;-0.31;81.67;95675.44;5093023;28;20205;-73
2022/12/21 05:52:49;;;;;;;57.35;25.67;;;;;;;-0.30;82.84;95679.69;5092652;28;20198;-74
2022/12/21 05:55:16;;;;;;;55.75;26.77;;;;;;;-0.26;82.74;95673.59;5093132;28;20657;-74
2022/12/21 05:57:43;;;;;;;49.55;22.27;;;;;;;-0.26;83.01;95667.59;5093175;28;20222;-73
2022/12/21 06:00:12;;;;;;;34.53;20.92;;;;;;;-0.27;82.56;95674.47;5057379;28;20255;-75
2022/12/21 06:02:40;;;;;;;36.47;19.30;;;;;;;-0.27;84.38;95679.63;5093035;28;20232;-75
2022/12/21 06:05:07;;;;;;;33.58;19.70;;;;;;;-0.31;84.73;95667.69;5092860;28;20206;-76
2022/12/21 06:07:35;;;;;;;38.05;20.77;;;;;;;-0.33;84.94;95670.31;5093020;28;20614;-73
2022/12/21 06:10:02;;;;;;;32.58;18.30;;;;;;;-0.28;84.55;95665.06;5092689;28;20205;-74
2022/12/21 06:12:29;;;;;;;28.27;17.65;;;;;;;-0.29;84.32;95667.66;5092858;28;20218;-74
2022/12/21 06:14:56;;;;;;;42.30;23.35;;;;;;;-0.30;83.93;95666.81;5091388;28;20289;-76
2022/12/21 06:17:27;;;;;;;33.92;19.55;;;;;;;-0.29;84.40;95667.66;5080433;28;20304;-74
2022/12/21 06:19:53;;;;;;;29.30;18.17;;;;;;;-0.22;85.13;95662.28;5076897;28;20226;-75
2022/12/21 06:22:20;;;;;;;32.35;17.85;;;;;;;-0.16;84.78;95656.94;5081104;28;20197;-74
2022/12/21 06:24:47;;;;;;;29.55;15.13;;;;;;;-0.10;84.48;95655.91;5072367;28;20203;-75
2022/12/21 06:27:14;;;;;;;31.13;17.67;;;;;;;-0.03;84.29;95660.81;5086789;28;20680;-74
2022/12/21 06:29:40;;;;;;;40.17;19.55;;;;;;;0.03;83.74;95653.78;5096561;28;20237;-75
2022/12/21 06:32:07;;;;;;;30.52;17.92;;;;;;;0.07;83.52;95650.22;5092656;28;20190;-74
2022/12/21 06:34:35;;;;;;;40.88;20.27;;;;;;;0.10;83.59;95648.38;5096205;28;20602;-74
2022/12/21 06:37:02;;;;;;;47.17;19.42;;;;;;;0.11;83.85;95646.66;5096626;28;20210;-75
2022/12/21 06:39:29;;;;;;;39.75;19.08;;;;;;;0.18;83.63;95646.38;5096740;28;20279;-74
2022/12/21 06:41:55;;;;;;;44.03;19.38;;;;;;;0.26;84.11;95646.97;5092062;28;20563;-74
2022/12/21 06:44:22;;;;;;;33.97;18.83;;;;;;;0.32;84.42;95647.69;5095973;28;20618;-74
2022/12/21 06:46:49;;;;;;;43.88;24.73;;;;;;;0.10;84.47;95652.69;5082723;28;20637;-73
2022/12/21 06:49:16;;;;;;;58.15;30.52;;;;;;;0.17;84.57;95651.59;5096157;28;20215;-74
2022/12/21 06:51:44;;;;;;;47.10;25.35;;;;;;;0.24;84.17;95648.75;5082716;28;20207;-73
2022/12/21 06:54:11;;;;;;;53.42;25.67;;;;;;;0.30;84.56;95655.50;5084363;28;20293;-73
2022/12/21 06:56:38;;;;;;;45.38;25.38;;;;;;;0.32;84.61;95661.44;5088268;28;20560;-74
2022/12/21 06:59:05;;;;;;;54.00;27.13;;;;;;;0.34;85.26;95658.81;5075476;28;20621;-74
2022/12/21 07:01:33;;;;;;;55.55;34.78;;;;;;;0.22;85.01;95658.28;5093881;28;20307;-74
2022/12/21 07:04:00;;;;;;;53.33;33.58;;;;;;;0.26;85.44;95664.19;5095415;28;20209;-74
2022/12/21 07:06:31;;;;;;;54.85;32.97;;;;;;;0.03;85.48;95674.44;5095480;28;20652;-74
2022/12/21 07:09:00;;;;;;;61.22;37.33;;;;;;;-0.19;87.23;95669.94;5095452;28;20206;-74
2022/12/21 07:11:29;;;;;;;78.53;41.45;;;;;;;-0.09;87.31;95671.31;5095281;28;20213;-74
2022/12/21 07:13:56;;;;;;;41.67;24.83;;;;;;;0.04;87.62;95669.22;5095434;28;20202;-73
2022/12/21 07:16:23;;;;;;;34.05;21.55;;;;;;;-0.04;87.60;95674.59;5094831;28;20680;-74
2022/12/21 07:18:50;;;;;;;41.78;23.98;;;;;;;0.17;87.00;95678.25;5042867;28;20289;-75
2022/12/21 07:21:19;;;;;;;46.80;23.58;;;;;;;0.32;87.05;95678.66;5095165;28;20198;-75
2022/12/21 07:23:47;;;;;;;48.30;25.15;;;;;;;0.47;86.39;95688.47;5095245;28;20198;-74
2022/12/21 07:26:16;;;;;;;49.05;27.88;;;;;;;0.59;86.35;95680.34;5042996;28;20621;-75
2022/12/21 07:28:45;;;;;;;38.35;24.38;;;;;;;0.60;85.86;95689.78;5094830;28;20207;-74
2022/12/21 07:31:15;;;;;;;52.08;26.40;;;;;;;0.66;85.94;95683.56;5095078;28;20644;-75
2022/12/21 07:33:42;;;;;;;37.38;19.98;;;;;;;0.84;85.88;95683.75;5095273;28;20198;-74
2022/12/21 07:36:10;;;;;;;29.70;17.30;;;;;;;0.96;84.65;95682.50;5095028;28;20557;-74
2022/12/21 07:38:38;;;;;;;30.27;18.73;;;;;;;1.01;84.40;95672.84;5094486;28;20777;-74
2022/12/21 07:41:07;;;;;;;31.52;18.17;;;;;;;1.06;84.17;95678.72;5094930;28;20247;-75
2022/12/21 07:43:36;;;;;;;31.35;17.35;;;;;;;1.11;84.11;95661.28;5094762;28;20210;-75
2022/12/21 07:46:03;;;;;;;27.05;16.33;;;;;;;1.16;84.71;95662.00;5094923;28;20206;-75
2022/12/21 07:48:30;;;;;;;26.70;17.00;;;;;;;1.24;83.82;95654.78;5094918;28;20218;-75
2022/12/21 07:50:57;;;;;;;26.42;15.98;;;;;;;1.36;84.29;95660.41;5094673;28;20445;-75
2022/12/21 07:53:24;;;;;;;29.20;17.80;;;;;;;1.43;83.80;95651.53;5094792;28;20670;-75
2022/12/21 07:55:51;;;;;;;23.43;14.63;;;;;;;1.61;83.39;95656.03;5042242;28;20445;-75
2022/12/21 07:58:17;;;;;;;28.67;16.97;;;;;;;1.71;81.80;95656.50;5094623;28;20507;-75
2022/12/21 08:00:46;;;;;;;18.35;13.45;;;;;;;1.78;81.50;95648.47;5094264;28;20443;-74
2022/12/21 08:03:13;;;;;;;19.48;13.52;;;;;;;1.89;81.57;95648.03;5094585;28;20291;-75
2022/12/21 08:05:39;;;;;;;20.93;14.60;;;;;;;1.96;81.19;95646.06;5094513;28;20202;-75
2022/12/21 08:08:06;;;;;;;24.20;15.77;;;;;;;2.08;80.86;95656.78;5094224;28;20518;-75
2022/12/21 08:10:33;;;;;;;24.07;14.60;;;;;;;2.09;80.82;95652.47;5094330;28;20500;-75
2022/12/21 08:13:00;;;;;;;21.20;13.60;;;;;;;2.03;80.08;95655.28;5094073;28;20804;-75
2022/12/21 08:15:27;;;;;;;25.47;15.17;;;;;;;1.99;79.96;95651.09;5094260;28;20446;-75
2022/12/21 08:17:55;;;;;;;24.87;14.80;;;;;;;2.01;79.68;95651.88;5094144;28;20576;-75
2022/12/21 08:20:22;;;;;;;21.60;14.53;;;;;;;2.01;80.61;95652.72;5093878;28;20491;-75
2022/12/21 08:22:49;;;;;;;30.97;17.13;;;;;;;1.94;79.36;95651.28;5094099;28;20462;-75
2022/12/21 08:25:16;;;;;;;31.33;19.30;;;;;;;1.95;79.54;95654.72;5093823;28;20546;-75
2022/12/21 08:27:43;;;;;;;28.23;18.57;;;;;;;2.03;79.54;95655.28;5094047;28;20448;-75
2022/12/21 08:30:10;;;;;;;28.43;18.80;;;;;;;2.07;79.57;95649.09;5093840;28;20499;-75
2022/12/21 08:32:37;;;;;;;35.78;18.08;;;;;;;2.16;79.13;95640.94;5094079;28;21172;-75
2022/12/21 08:35:06;;;;;;;37.03;22.13;;;;;;;2.11;79.45;95635.13;5093915;28;20250;-75
2022/12/21 08:37:33;;;;;;;33.57;20.97;;;;;;;2.06;80.31;95630.13;5093786;28;20456;-75
2022/12/21 08:40:00;;;;;;;34.47;20.70;;;;;;;1.98;80.47;95628.72;5093886;28;20489;-75
2022/12/21 08:42:26;;;;;;;37.30;20.10;;;;;;;1.97;80.70;95619.28;5093739;28;20436;-75
2022/12/21 08:44:53;;;;;;;37.03;22.50;;;;;;;1.93;81.08;95607.38;5093754;28;20831;-74
2022/12/21 08:47:20;;;;;;;35.70;20.70;;;;;;;2.09;80.63;95609.28;5093877;28;20508;-75
2022/12/21 08:49:47;;;;;;;33.23;18.93;;;;;;;2.09;80.85;95606.69;5092925;28;20447;-75
2022/12/21 08:52:15;;;;;;;28.87;18.47;;;;;;;2.15;80.93;95603.03;5093312;28;20929;-74
2022/12/21 08:54:42;;;;;;;29.73;18.47;;;;;;;1.90;81.38;95585.03;5093591;28;20496;-74
2022/12/21 08:57:08;;;;;;;30.90;19.03;;;;;;;2.17;81.19;95598.63;5093292;28;21098;-75
2022/12/21 08:59:35;;;;;;;36.00;18.10;;;;;;;2.19;81.31;95596.81;5093482;28;20483;-75
2022/12/21 09:02:02;;;;;;;30.17;19.07;;;;;;;2.26;81.25;95592.22;5093255;28;20471;-75
2022/12/21 09:04:28;;;;;;;26.20;18.50;;;;;;;2.00;81.47;95580.31;5093124;28;20843;-74
2022/12/21 09:06:55;;;;;;;27.90;18.90;;;;;;;2.15;80.92;95579.72;5040702;28;20494;-74
2022/12/21 09:09:23;;;;;;;35.63;19.40;;;;;;;2.27;80.29;95571.44;5093215;28;20448;-74
2022/12/21 09:11:50;;;;;;;25.60;17.43;;;;;;;2.37;79.90;95574.50;5093048;28;20496;-75
2022/12/21 09:14:17;;;;;;;25.73;17.73;;;;;;;2.38;79.54;95569.25;5092943;28;20444;-75
2022/12/21 09:16:43;;;;;;;29.97;18.23;;;;;;;2.46;80.19;95562.00;5093042;28;20497;-75
2022/12/21 09:19:10;;;;;;;27.40;17.50;;;;;;;2.54;79.74;95561.66;5092999;28;21055;-74
2022/12/21 09:21:37;;;;;;;28.73;17.77;;;;;;;2.58;79.11;95558.03;5092917;28;20442;-74
2022/12/21 09:24:04;;;;;;;26.73;17.50;;;;;;;2.67;79.02;95542.13;5093041;28;20442;-74
2022/12/21 09:26:32;;;;;;;37.77;21.00;;;;;;;2.80;78.41;95547.59;5093027;28;20506;-74
2022/12/21 09:28:59;;;;;;;36.27;22.00;;;;;;;2.92;78.10;95549.66;5092780;28;20507;-75
2022/12/21 09:31:26;;;;;;;26.23;19.57;;;;;;;2.90;76.43;95541.09;5040584;28;20493;-75
2022/12/21 09:33:53;;;;;;;34.53;18.40;;;;;;;3.05;76.37;95531.78;5092427;28;20444;-74
2022/12/21 09:36:21;;;;;;;30.87;20.67;;;;;;;3.20;75.98;95525.91;5040221;28;20509;-72
2022/12/21 09:38:50;;;;;;;31.90;19.13;;;;;;;3.34;74.70;95512.31;5039996;28;20475;-73
2022/12/21 09:41:41;;;;;;;37.40;22.20;;;;;;;3.45;74.34;95512.63;5092545;28;20496;-72
2022/12/21 09:44:46;;;;;;;37.30;21.60;;;;;;;3.52;73.01;95503.66;5092214;28;20500;-75
2022/12/21 09:47:17;;;;;;;38.07;23.87;;;;;;;3.58;72.12;95505.97;4970867;28;20800;-75
2022/12/21 09:49:50;;;;;;;33.43;21.03;;;;;;;3.63;72.28;95493.59;4971247;28;20488;-75
2022/12/21 09:52:22;;;;;;;39.17;21.87;;;;;;;3.67;72.13;95494.28;4971054;28;20929;-74
2022/12/21 09:54:56;;;;;;;36.77;22.40;;;;;;;3.78;72.46;95491.19;4970872;28;21110;-74
2022/12/21 09:57:29;;;;;;;28.30;18.20;;;;;;;3.91;72.48;95487.91;4970878;28;20982;-74
2022/12/21 09:59:56;;;;;;;38.90;23.37;;;;;;;3.90;70.83;95490.59;4970848;28;20916;-74
2022/12/21 10:02:36;;;;;;;45.30;22.90;;;;;;;3.99;71.64;95492.72;4970696;28;20929;-74
2022/12/21 10:05:16;;;;;;;44.07;23.37;;;;;;;3.96;72.96;95480.72;4970726;28;20445;-75
2022/12/21 10:08:03;;;;;;;36.40;22.40;;;;;;;3.79;74.16;95485.09;4970871;28;20448;-75
2022/12/21 10:10:38;;;;;;;38.90;23.33;;;;;;;3.83;74.28;95486.63;4971049;28;20893;-74
2022/12/21 10:13:19;;;;;;;38.20;21.30;;;;;;;3.72;75.00;95476.75;4970943;28;20445;-75
2022/12/21 10:15:59;;;;;;;47.70;23.93;;;;;;;3.67;75.89;95473.53;4970879;28;20452;-74
2022/12/21 10:18:32;;;;;;;37.70;22.50;;;;;;;3.76;74.25;95473.09;4981189;28;20455;-75
2022/12/21 10:21:08;;;;;;;36.37;21.70;;;;;;;3.68;74.42;95468.25;4990235;28;20437;-75
2022/12/21 10:23:40;;;;;;;35.73;22.10;;;;;;;3.68;76.00;95449.25;5026164;28;20451;-75
2022/12/21 10:26:13;;;;;;;42.63;25.77;;;;;;;3.76;76.51;95441.97;5041646;28;20450;-75
2022/12/21 10:28:47;;;;;;;39.37;23.27;;;;;;;3.79;77.58;95438.38;5091825;28;20439;-75
2022/12/21 10:31:20;;;;;;;35.13;21.13;;;;;;;3.70;77.62;95427.50;5092312;28;20447;-74
2022/12/21 10:33:51;;;;;;;32.33;23.93;;;;;;;3.70;77.06;95421.47;5091840;28;20440;-75
2022/12/21 10:36:21;;;;;;;42.10;25.03;;;;;;;3.53;76.01;95424.91;5091579;28;20440;-75
2022/12/21 10:38:49;;;;;;;41.97;24.40;;;;;;;3.70;76.09;95429.25;5039424;28;20485;-75
2022/12/21 10:41:18;;;;;;;36.20;23.33;;;;;;;3.87;76.57;95420.66;5091800;28;20447;-75
2022/12/21 10:43:48;;;;;;;38.03;21.50;;;;;;;3.79;76.69;95426.22;5091831;28;20440;-75
2022/12/21 10:46:18;;;;;;;33.43;20.83;;;;;;;3.91;75.44;95415.22;5091844;28;20809;-75
2022/12/21 10:48:46;;;;;;;29.50;20.43;;;;;;;3.90;76.57;95415.31;5091587;28;20493;-75
2022/12/21 10:51:24;;;;;;;30.40;20.57;;;;;;;3.93;75.01;95420.34;5091998;28;20440;-75
2022/12/21 10:54:02;;;;;;;33.50;20.60;;;;;;;3.91;74.92;95414.38;5039541;28;20432;-75
2022/12/21 10:56:32;;;;;;;29.40;20.50;;;;;;;4.09;75.05;95408.28;5091827;28;20450;-75
2022/12/21 10:59:12;;;;;;;36.27;20.70;;;;;;;4.34;73.91;95407.84;5091427;28;20490;-75
2022/12/21 11:01:39;;;;;;;45.37;23.60;;;;;;;4.55;73.45;95411.91;5091536;28;20475;-75
2022/12/21 11:04:13;;;;;;;31.47;18.87;;;;;;;4.66;72.19;95406.16;5091484;28;20444;-75
2022/12/21 11:06:40;;;;;;;33.10;20.03;;;;;;;4.77;70.96;95397.75;5091588;28;20443;-75
2022/12/21 11:09:27;;;;;;;33.23;20.63;;;;;;;4.87;71.76;95397.16;5091529;28;20458;-75
2022/12/21 11:11:54;;;;;;;30.80;21.10;;;;;;;4.93;70.21;95394.25;5091534;28;20447;-75
2022/12/21 11:14:23;;;;;;;42.53;23.10;;;;;;;4.99;70.58;95385.28;5093805;28;20443;-75
2022/12/21 11:16:50;;;;;;;32.10;22.10;;;;;;;4.96;70.31;95386.28;5095257;28;20493;-75
2022/12/21 11:19:20;;;;;;;42.67;24.27;;;;;;;5.00;69.59;95381.75;5095306;28;20506;-75
2022/12/21 11:21:50;;;;;;;36.13;21.40;;;;;;;5.05;70.14;95378.91;5095145;28;20459;-74
2022/12/21 11:24:20;;;;;;;34.60;22.07;;;;;;;5.15;70.17;95369.66;5059289;28;20436;-75
2022/12/21 11:26:51;;;;;;;32.90;21.63;;;;;;;5.10;69.19;95367.31;5095551;28;20466;-75
2022/12/21 11:29:25;;;;;;;36.27;21.47;;;;;;;5.12;68.64;95364.63;5094932;28;20444;-74
2022/12/21 11:31:54;;;;;;;32.50;22.37;;;;;;;5.19;68.77;95365.94;5095027;28;20942;-75
2022/12/21 11:34:35;;;;;;;47.27;24.83;;;;;;;5.28;67.74;95365.44;5094924;28;20443;-75
2022/12/21 11:37:05;;;;;;;44.90;24.60;;;;;;;5.36;68.48;95352.84;5094833;28;20446;-75
2022/12/21 11:39:31;;;;;;;41.80;22.40;;;;;;;5.48;68.11;95344.31;5042506;28;21020;-75
2022/12/21 11:41:58;;;;;;;36.30;22.97;;;;;;;5.59;67.20;95341.94;5094845;28;20451;-75
2022/12/21 11:44:31;;;;;;;36.77;22.60;;;;;;;5.66;67.64;95339.81;5094723;28;20435;-74
2022/12/21 11:47:19;;;;;;;34.73;21.23;;;;;;;5.68;66.98;95334.53;5042342;28;20440;-74
2022/12/21 11:50:19;;;;;;;31.50;19.73;;;;;;;5.78;67.43;95338.25;5094667;28;20821;-75
2022/12/21 11:52:58;;;;;;;36.77;21.60;;;;;;;5.80;66.06;95331.22;5094593;28;20452;-76
2022/12/21 11:55:35;;;;;;;41.20;22.87;;;;;;;5.85;65.63;95329.16;5094433;28;20451;-75